sensor_id;sensor_type;location;lat;lon;timestamp;pressure;altitude;pressure_sealevel;temperature;humidity
23867;BME280;12114;53.404;-1.502;2024-02-21T00:00:07;100928.09;;;8.47;28.00
23867;BME280;12114;53.404;-1.502;2024-02-21T00:02:52;100912.63;;;8.46;26.55
23867;BME280;12114;53.404;-1.502;2024-02-21T00:05:36;100899.78;;;8.42;25.70
23867;BME280;12114;53.404;-1.502;2024-02-21T00:08:20;100886.25;;;8.40;26.62
23867;BME280;12114;53.404;-1.502;2024-02-21T00:11:04;100890.97;;;8.40;28.79
23867;BME280;12114;53.404;-1.502;2024-02-21T00:13:48;100896.47;;;8.48;30.81
23867;BME280;12114;53.404;-1.502;2024-02-21T00:16:34;100900.56;;;8.51;31.37
23867;BME280;12114;53.404;-1.502;2024-02-21T00:19:18;100888.50;;;8.47;30.06
23867;BME280;12114;53.404;-1.502;2024-02-21T00:22:03;100875.38;;;8.35;26.36
23867;BME280;12114;53.404;-1.502;2024-02-21T00:24:47;100873.13;;;8.20;25.45
23867;BME280;12114;53.404;-1.502;2024-02-21T00:27:32;100869.34;;;8.33;28.77
23867;BME280;12114;53.404;-1.502;2024-02-21T00:30:16;100870.78;;;8.39;29.86
23867;BME280;12114;53.404;-1.502;2024-02-21T00:33:00;100869.66;;;8.40;30.28
23867;BME280;12114;53.404;-1.502;2024-02-21T00:35:44;100874.38;;;8.40;30.40
23867;BME280;12114;53.404;-1.502;2024-02-21T00:38:28;100875.53;;;8.39;29.99
23867;BME280;12114;53.404;-1.502;2024-02-21T00:41:13;100870.84;;;8.31;29.24
23867;BME280;12114;53.404;-1.502;2024-02-21T00:43:57;100866.78;;;8.28;30.32
23867;BME280;12114;53.404;-1.502;2024-02-21T00:46:41;100878.00;;;8.32;31.27
23867;BME280;12114;53.404;-1.502;2024-02-21T00:49:25;100862.69;;;8.34;31.00
23867;BME280;12114;53.404;-1.502;2024-02-21T00:52:09;100862.22;;;8.32;31.60
23867;BME280;12114;53.404;-1.502;2024-02-21T00:54:53;100854.22;;;8.31;32.67
23867;BME280;12114;53.404;-1.502;2024-02-21T00:57:37;100865.28;;;8.31;33.07
23867;BME280;12114;53.404;-1.502;2024-02-21T01:00:21;100857.81;;;8.31;33.58
23867;BME280;12114;53.404;-1.502;2024-02-21T01:03:05;100848.38;;;8.32;34.55
23867;BME280;12114;53.404;-1.502;2024-02-21T01:05:49;100835.34;;;8.33;34.49
23867;BME280;12114;53.404;-1.502;2024-02-21T01:08:33;100817.91;;;8.32;33.71
23867;BME280;12114;53.404;-1.502;2024-02-21T01:11:17;100821.63;;;8.36;34.22
23867;BME280;12114;53.404;-1.502;2024-02-21T01:14:01;100820.78;;;8.44;34.25
23867;BME280;12114;53.404;-1.502;2024-02-21T01:16:46;100817.34;;;8.47;34.20
23867;BME280;12114;53.404;-1.502;2024-02-21T01:19:30;100818.16;;;8.48;33.73
23867;BME280;12114;53.404;-1.502;2024-02-21T01:22:14;100817.34;;;8.47;33.59
23867;BME280;12114;53.404;-1.502;2024-02-21T01:24:59;100802.22;;;8.45;35.05
23867;BME280;12114;53.404;-1.502;2024-02-21T01:27:43;100791.06;;;8.53;35.54
23867;BME280;12114;53.404;-1.502;2024-02-21T01:30:27;100797.97;;;8.68;39.25
23867;BME280;12114;53.404;-1.502;2024-02-21T01:33:11;100774.09;;;8.75;39.87
23867;BME280;12114;53.404;-1.502;2024-02-21T01:35:56;100770.59;;;8.87;40.29
23867;BME280;12114;53.404;-1.502;2024-02-21T01:38:40;100773.75;;;8.98;39.98
23867;BME280;12114;53.404;-1.502;2024-02-21T01:41:24;100762.94;;;9.05;39.00
23867;BME280;12114;53.404;-1.502;2024-02-21T01:44:08;100745.97;;;9.06;37.46
23867;BME280;12114;53.404;-1.502;2024-02-21T01:46:52;100722.41;;;9.12;37.56
23867;BME280;12114;53.404;-1.502;2024-02-21T01:49:37;100701.75;;;9.10;36.44
23867;BME280;12114;53.404;-1.502;2024-02-21T01:52:21;100703.84;;;9.13;36.18
23867;BME280;12114;53.404;-1.502;2024-02-21T01:55:06;100694.28;;;9.22;38.75
23867;BME280;12114;53.404;-1.502;2024-02-21T01:57:51;100696.94;;;9.31;41.93
23867;BME280;12114;53.404;-1.502;2024-02-21T02:00:36;100698.91;;;9.43;44.87
23867;BME280;12114;53.404;-1.502;2024-02-21T02:03:21;100681.03;;;9.52;45.40
23867;BME280;12114;53.404;-1.502;2024-02-21T02:06:06;100669.94;;;9.64;43.76
23867;BME280;12114;53.404;-1.502;2024-02-21T02:08:54;100669.25;;;9.67;40.03
23867;BME280;12114;53.404;-1.502;2024-02-21T02:11:39;100658.50;;;9.66;37.53
23867;BME280;12114;53.404;-1.502;2024-02-21T02:14:23;100669.59;;;9.66;35.78
23867;BME280;12114;53.404;-1.502;2024-02-21T02:17:07;100663.00;;;9.70;34.45
23867;BME280;12114;53.404;-1.502;2024-02-21T02:19:52;100661.50;;;9.73;33.41
23867;BME280;12114;53.404;-1.502;2024-02-21T02:22:37;100651.44;;;9.80;34.75
23867;BME280;12114;53.404;-1.502;2024-02-21T02:25:22;100643.94;;;9.81;34.65
23867;BME280;12114;53.404;-1.502;2024-02-21T02:28:07;100632.59;;;9.86;35.75
23867;BME280;12114;53.404;-1.502;2024-02-21T02:30:52;100628.41;;;9.92;38.14
23867;BME280;12114;53.404;-1.502;2024-02-21T02:33:36;100624.22;;;9.98;40.45
23867;BME280;12114;53.404;-1.502;2024-02-21T02:36:20;100624.56;;;10.09;36.94
23867;BME280;12114;53.404;-1.502;2024-02-21T02:39:04;100611.47;;;10.09;36.36
23867;BME280;12114;53.404;-1.502;2024-02-21T02:41:48;100607.00;;;10.17;37.93
23867;BME280;12114;53.404;-1.502;2024-02-21T02:44:32;100600.03;;;10.23;38.78
23867;BME280;12114;53.404;-1.502;2024-02-21T02:47:16;100597.47;;;10.30;39.98
23867;BME280;12114;53.404;-1.502;2024-02-21T02:50:00;100593.97;;;10.33;40.15
23867;BME280;12114;53.404;-1.502;2024-02-21T02:52:44;100575.69;;;10.32;40.05
23867;BME280;12114;53.404;-1.502;2024-02-21T02:55:28;100559.13;;;10.35;41.38
23867;BME280;12114;53.404;-1.502;2024-02-21T02:58:12;100548.69;;;10.45;44.10
23867;BME280;12114;53.404;-1.502;2024-02-21T03:00:56;100549.22;;;10.50;45.75
23867;BME280;12114;53.404;-1.502;2024-02-21T03:03:40;100535.44;;;10.54;47.92
23867;BME280;12114;53.404;-1.502;2024-02-21T03:06:24;100527.63;;;10.59;50.16
23867;BME280;12114;53.404;-1.502;2024-02-21T03:09:08;100520.47;;;10.58;52.77
23867;BME280;12114;53.404;-1.502;2024-02-21T03:11:52;100510.25;;;10.62;55.04
23867;BME280;12114;53.404;-1.502;2024-02-21T03:14:40;100491.44;;;10.71;57.13
23867;BME280;12114;53.404;-1.502;2024-02-21T03:17:25;100482.75;;;10.73;57.94
23867;BME280;12114;53.404;-1.502;2024-02-21T03:20:11;100481.31;;;10.79;58.49
23867;BME280;12114;53.404;-1.502;2024-02-21T03:22:55;100470.97;;;10.79;59.21
23867;BME280;12114;53.404;-1.502;2024-02-21T03:25:39;100470.97;;;10.79;59.90
23867;BME280;12114;53.404;-1.502;2024-02-21T03:28:23;100464.38;;;10.84;60.94
23867;BME280;12114;53.404;-1.502;2024-02-21T03:31:07;100459.16;;;10.82;61.44
23867;BME280;12114;53.404;-1.502;2024-02-21T03:33:51;100447.25;;;10.82;61.90
23867;BME280;12114;53.404;-1.502;2024-02-21T03:36:35;100436.47;;;10.80;63.85
23867;BME280;12114;53.404;-1.502;2024-02-21T03:39:19;100419.47;;;10.82;65.34
23867;BME280;12114;53.404;-1.502;2024-02-21T03:42:04;100409.38;;;10.93;67.63
23867;BME280;12114;53.404;-1.502;2024-02-21T03:44:48;100401.59;;;10.83;66.93
23867;BME280;12114;53.404;-1.502;2024-02-21T03:47:32;100394.78;;;10.80;68.31
23867;BME280;12114;53.404;-1.502;2024-02-21T03:50:16;100378.56;;;10.82;69.22
23867;BME280;12114;53.404;-1.502;2024-02-21T03:53:00;100365.13;;;10.84;70.21
23867;BME280;12114;53.404;-1.502;2024-02-21T03:55:44;100367.97;;;10.88;69.69
23867;BME280;12114;53.404;-1.502;2024-02-21T03:58:28;100351.66;;;10.86;68.95
23867;BME280;12114;53.404;-1.502;2024-02-21T04:01:15;100357.47;;;10.97;70.86
23867;BME280;12114;53.404;-1.502;2024-02-21T04:03:58;100341.78;;;10.89;69.25
23867;BME280;12114;53.404;-1.502;2024-02-21T04:06:50;100332.38;;;10.93;69.02
23867;BME280;12114;53.404;-1.502;2024-02-21T04:09:34;100319.84;;;10.84;68.32
23867;BME280;12114;53.404;-1.502;2024-02-21T04:12:18;100314.78;;;10.89;67.13
23867;BME280;12114;53.404;-1.502;2024-02-21T04:15:02;100317.94;;;10.88;68.50
23867;BME280;12114;53.404;-1.502;2024-02-21T04:17:46;100303.50;;;10.82;64.52
23867;BME280;12114;53.404;-1.502;2024-02-21T04:20:31;100297.59;;;10.84;62.58
23867;BME280;12114;53.404;-1.502;2024-02-21T04:23:16;100286.69;;;10.94;61.65
23867;BME280;12114;53.404;-1.502;2024-02-21T04:26:00;100282.25;;;10.90;60.70
23867;BME280;12114;53.404;-1.502;2024-02-21T04:28:45;100279.69;;;11.01;61.08
23867;BME280;12114;53.404;-1.502;2024-02-21T04:31:29;100269.09;;;10.87;57.55
23867;BME280;12114;53.404;-1.502;2024-02-21T04:34:13;100264.94;;;10.96;56.20
23867;BME280;12114;53.404;-1.502;2024-02-21T04:36:57;100252.25;;;10.99;55.12
23867;BME280;12114;53.404;-1.502;2024-02-21T04:39:41;100239.75;;;10.89;51.83
23867;BME280;12114;53.404;-1.502;2024-02-21T04:42:25;100234.34;;;10.96;53.23
23867;BME280;12114;53.404;-1.502;2024-02-21T04:45:09;100228.13;;;11.03;51.38
23867;BME280;12114;53.404;-1.502;2024-02-21T04:47:54;100228.13;;;11.03;51.38
23867;BME280;12114;53.404;-1.502;2024-02-21T04:50:37;100199.03;;;10.97;51.52
23867;BME280;12114;53.404;-1.502;2024-02-21T04:53:21;100204.50;;;10.93;51.30
23867;BME280;12114;53.404;-1.502;2024-02-21T04:56:05;100206.81;;;10.91;51.39
23867;BME280;12114;53.404;-1.502;2024-02-21T04:58:50;100185.28;;;10.85;50.95
23867;BME280;12114;53.404;-1.502;2024-02-21T05:01:34;100180.66;;;10.73;53.53
23867;BME280;12114;53.404;-1.502;2024-02-21T05:04:18;100171.00;;;10.67;59.21
23867;BME280;12114;53.404;-1.502;2024-02-21T05:07:02;100159.69;;;10.57;62.06
23867;BME280;12114;53.404;-1.502;2024-02-21T05:09:46;100148.06;;;10.51;64.06
23867;BME280;12114;53.404;-1.502;2024-02-21T05:12:30;100145.72;;;10.53;65.12
23867;BME280;12114;53.404;-1.502;2024-02-21T05:15:14;100137.75;;;10.52;65.69
23867;BME280;12114;53.404;-1.502;2024-02-21T05:17:58;100128.88;;;10.46;67.59
23867;BME280;12114;53.404;-1.502;2024-02-21T05:20:43;100115.47;;;10.48;71.87
23867;BME280;12114;53.404;-1.502;2024-02-21T05:23:27;100105.59;;;10.51;72.97
23867;BME280;12114;53.404;-1.502;2024-02-21T05:26:11;100094.06;;;10.49;73.04
23867;BME280;12114;53.404;-1.502;2024-02-21T05:28:55;100092.06;;;10.49;74.75
23867;BME280;12114;53.404;-1.502;2024-02-21T05:34:35;100083.50;;;10.58;80.18
23867;BME280;12114;53.404;-1.502;2024-02-21T05:37:19;100070.94;;;10.45;80.92
23867;BME280;12114;53.404;-1.502;2024-02-21T05:40:03;100069.09;;;10.52;83.37
23867;BME280;12114;53.404;-1.502;2024-02-21T05:42:47;100049.22;;;10.50;82.21
23867;BME280;12114;53.404;-1.502;2024-02-21T05:45:31;100038.03;;;10.47;81.72
23867;BME280;12114;53.404;-1.502;2024-02-21T05:48:15;100025.34;;;10.46;85.56
23867;BME280;12114;53.404;-1.502;2024-02-21T05:51:01;100026.13;;;10.46;88.41
23867;BME280;12114;53.404;-1.502;2024-02-21T05:53:45;100015.91;;;10.50;89.15
23867;BME280;12114;53.404;-1.502;2024-02-21T05:56:30;100003.13;;;10.46;88.30
23867;BME280;12114;53.404;-1.502;2024-02-21T05:59:14;99998.81;;;10.48;87.32
23867;BME280;12114;53.404;-1.502;2024-02-21T06:01:58;99990.97;;;10.54;86.75
23867;BME280;12114;53.404;-1.502;2024-02-21T06:04:42;99978.56;;;10.48;85.36
23867;BME280;12114;53.404;-1.502;2024-02-21T06:07:26;99968.69;;;10.50;86.68
23867;BME280;12114;53.404;-1.502;2024-02-21T06:10:10;99962.69;;;10.48;85.55
23867;BME280;12114;53.404;-1.502;2024-02-21T06:12:54;99961.03;;;10.43;85.58
23867;BME280;12114;53.404;-1.502;2024-02-21T06:15:38;99934.06;;;10.44;86.62
23867;BME280;12114;53.404;-1.502;2024-02-21T06:18:22;99934.44;;;10.43;86.89
23867;BME280;12114;53.404;-1.502;2024-02-21T06:21:06;99935.91;;;10.36;86.70
23867;BME280;12114;53.404;-1.502;2024-02-21T06:23:50;99932.53;;;10.27;86.11
23867;BME280;12114;53.404;-1.502;2024-02-21T06:26:34;99934.59;;;10.30;86.07
23867;BME280;12114;53.404;-1.502;2024-02-21T06:29:18;99923.44;;;10.27;83.94
23867;BME280;12114;53.404;-1.502;2024-02-21T06:32:02;99932.94;;;10.26;81.81
23867;BME280;12114;53.404;-1.502;2024-02-21T06:34:47;99910.09;;;10.13;77.81
23867;BME280;12114;53.404;-1.502;2024-02-21T06:37:31;99899.47;;;10.19;77.21
23867;BME280;12114;53.404;-1.502;2024-02-21T06:40:16;99898.88;;;10.10;73.04
23867;BME280;12114;53.404;-1.502;2024-02-21T06:43:01;99887.53;;;9.96;69.03
23867;BME280;12114;53.404;-1.502;2024-02-21T06:45:45;99867.72;;;9.97;67.25
23867;BME280;12114;53.404;-1.502;2024-02-21T06:48:34;99862.00;;;9.86;65.25
23867;BME280;12114;53.404;-1.502;2024-02-21T06:51:18;99853.44;;;9.95;66.10
23867;BME280;12114;53.404;-1.502;2024-02-21T06:54:02;99854.16;;;9.92;67.19
23867;BME280;12114;53.404;-1.502;2024-02-21T06:56:46;99858.56;;;9.93;68.28
23867;BME280;12114;53.404;-1.502;2024-02-21T06:59:30;99832.94;;;9.80;67.06
23867;BME280;12114;53.404;-1.502;2024-02-21T07:02:15;99827.31;;;9.77;65.41
23867;BME280;12114;53.404;-1.502;2024-02-21T07:04:59;99806.69;;;9.74;64.15
23867;BME280;12114;53.404;-1.502;2024-02-21T07:07:43;99803.66;;;9.60;62.41
23867;BME280;12114;53.404;-1.502;2024-02-21T07:10:27;99795.13;;;9.50;61.43
23867;BME280;12114;53.404;-1.502;2024-02-21T07:13:13;99794.16;;;9.61;62.04
23867;BME280;12114;53.404;-1.502;2024-02-21T07:15:58;99788.13;;;9.78;60.65
23867;BME280;12114;53.404;-1.502;2024-02-21T07:18:43;99771.88;;;9.58;58.41
23867;BME280;12114;53.404;-1.502;2024-02-21T07:21:26;99778.13;;;9.51;56.61
23867;BME280;12114;53.404;-1.502;2024-02-21T07:24:11;99769.75;;;9.48;56.33
23867;BME280;12114;53.404;-1.502;2024-02-21T07:26:55;99751.13;;;9.48;56.75
23867;BME280;12114;53.404;-1.502;2024-02-21T07:29:39;99741.69;;;9.53;57.45
23867;BME280;12114;53.404;-1.502;2024-02-21T07:32:23;99724.56;;;9.47;59.78
23867;BME280;12114;53.404;-1.502;2024-02-21T07:35:08;99715.75;;;9.42;59.47
23867;BME280;12114;53.404;-1.502;2024-02-21T07:37:54;99725.22;;;9.41;62.14
23867;BME280;12114;53.404;-1.502;2024-02-21T07:40:38;99722.97;;;9.46;64.51
23867;BME280;12114;53.404;-1.502;2024-02-21T07:43:22;99708.66;;;9.44;64.51
23867;BME280;12114;53.404;-1.502;2024-02-21T07:46:07;99700.41;;;9.48;66.31
23867;BME280;12114;53.404;-1.502;2024-02-21T07:48:51;99684.53;;;9.45;65.74
23867;BME280;12114;53.404;-1.502;2024-02-21T07:51:35;99679.03;;;9.48;65.70
23867;BME280;12114;53.404;-1.502;2024-02-21T07:54:20;99677.78;;;9.46;64.37
23867;BME280;12114;53.404;-1.502;2024-02-21T07:57:04;99664.72;;;9.46;66.28
23867;BME280;12114;53.404;-1.502;2024-02-21T07:59:48;99674.09;;;9.38;66.71
23867;BME280;12114;53.404;-1.502;2024-02-21T08:02:32;99659.25;;;9.50;68.45
23867;BME280;12114;53.404;-1.502;2024-02-21T08:05:17;99649.78;;;9.51;71.38
23867;BME280;12114;53.404;-1.502;2024-02-21T08:08:03;99644.03;;;9.63;75.72
23867;BME280;12114;53.404;-1.502;2024-02-21T08:10:48;99633.00;;;9.66;75.80
23867;BME280;12114;53.404;-1.502;2024-02-21T08:13:33;99623.06;;;9.65;74.10
23867;BME280;12114;53.404;-1.502;2024-02-21T08:16:16;99607.97;;;9.63;71.98
23867;BME280;12114;53.404;-1.502;2024-02-21T08:19:00;99602.09;;;9.68;73.27
23867;BME280;12114;53.404;-1.502;2024-02-21T08:21:46;99603.25;;;9.67;73.03
23867;BME280;12114;53.404;-1.502;2024-02-21T08:24:30;99598.59;;;9.71;74.07
23867;BME280;12114;53.404;-1.502;2024-02-21T08:27:14;99581.13;;;9.70;73.69
23867;BME280;12114;53.404;-1.502;2024-02-21T08:29:58;99571.59;;;9.68;74.66
23867;BME280;12114;53.404;-1.502;2024-02-21T08:32:42;99572.81;;;9.70;77.80
23867;BME280;12114;53.404;-1.502;2024-02-21T08:35:27;99556.91;;;9.67;80.00
23867;BME280;12114;53.404;-1.502;2024-02-21T08:38:11;99548.72;;;9.74;82.22
23867;BME280;12114;53.404;-1.502;2024-02-21T08:40:54;99539.97;;;9.72;82.93
23867;BME280;12114;53.404;-1.502;2024-02-21T08:43:39;99536.06;;;9.77;84.51
23867;BME280;12114;53.404;-1.502;2024-02-21T08:46:23;99518.38;;;9.88;86.38
23867;BME280;12114;53.404;-1.502;2024-02-21T08:49:10;99524.88;;;10.00;87.07
23867;BME280;12114;53.404;-1.502;2024-02-21T08:51:54;99518.47;;;9.96;85.46
23867;BME280;12114;53.404;-1.502;2024-02-21T08:54:38;99502.28;;;10.01;85.42
23867;BME280;12114;53.404;-1.502;2024-02-21T08:57:22;99490.41;;;10.01;85.28
23867;BME280;12114;53.404;-1.502;2024-02-21T09:00:06;99471.78;;;10.01;87.01
23867;BME280;12114;53.404;-1.502;2024-02-21T09:02:53;99473.38;;;10.02;86.53
23867;BME280;12114;53.404;-1.502;2024-02-21T09:05:39;99454.00;;;10.06;86.66
23867;BME280;12114;53.404;-1.502;2024-02-21T09:08:24;99452.00;;;10.06;85.78
23867;BME280;12114;53.404;-1.502;2024-02-21T09:11:08;99446.03;;;10.04;86.72
23867;BME280;12114;53.404;-1.502;2024-02-21T09:13:53;99433.00;;;10.08;87.84
23867;BME280;12114;53.404;-1.502;2024-02-21T09:16:37;99410.84;;;10.12;87.08
23867;BME280;12114;53.404;-1.502;2024-02-21T09:19:21;99406.47;;;10.11;88.04
23867;BME280;12114;53.404;-1.502;2024-02-21T09:22:04;99401.78;;;10.15;90.05
23867;BME280;12114;53.404;-1.502;2024-02-21T09:24:49;99390.19;;;10.09;92.61
23867;BME280;12114;53.404;-1.502;2024-02-21T09:27:33;99395.47;;;10.18;93.89
23867;BME280;12114;53.404;-1.502;2024-02-21T09:30:17;99382.47;;;10.25;98.82
23867;BME280;12114;53.404;-1.502;2024-02-21T09:33:02;99364.53;;;10.16;96.97
23867;BME280;12114;53.404;-1.502;2024-02-21T09:35:47;99356.31;;;10.26;95.30
23867;BME280;12114;53.404;-1.502;2024-02-21T09:38:32;99340.00;;;10.25;94.86
23867;BME280;12114;53.404;-1.502;2024-02-21T09:41:18;99322.22;;;10.29;96.69
23867;BME280;12114;53.404;-1.502;2024-02-21T09:44:02;99312.69;;;10.30;96.63
23867;BME280;12114;53.404;-1.502;2024-02-21T09:47:03;99303.66;;;10.40;98.87
23867;BME280;12114;53.404;-1.502;2024-02-21T09:49:49;99299.31;;;10.39;97.49
23867;BME280;12114;53.404;-1.502;2024-02-21T09:52:35;99290.59;;;10.41;97.52
23867;BME280;12114;53.404;-1.502;2024-02-21T09:55:22;99275.53;;;10.42;97.42
23867;BME280;12114;53.404;-1.502;2024-02-21T09:58:07;99253.31;;;10.42;97.59
23867;BME280;12114;53.404;-1.502;2024-02-21T10:00:53;99242.16;;;10.35;97.25
23867;BME280;12114;53.404;-1.502;2024-02-21T10:03:37;99246.56;;;10.39;98.20
23867;BME280;12114;53.404;-1.502;2024-02-21T10:06:22;99241.47;;;10.49;97.51
23867;BME280;12114;53.404;-1.502;2024-02-21T10:09:06;99218.13;;;10.60;95.97
23867;BME280;12114;53.404;-1.502;2024-02-21T10:11:51;99214.97;;;10.65;94.64
23867;BME280;12114;53.404;-1.502;2024-02-21T10:14:35;99189.16;;;10.65;94.20
23867;BME280;12114;53.404;-1.502;2024-02-21T10:17:20;99186.03;;;10.70;94.52
23867;BME280;12114;53.404;-1.502;2024-02-21T10:20:08;99181.69;;;10.83;96.04
23867;BME280;12114;53.404;-1.502;2024-02-21T10:23:05;99167.81;;;10.83;94.22
23867;BME280;12114;53.404;-1.502;2024-02-21T10:25:53;99162.22;;;10.72;93.24
23867;BME280;12114;53.404;-1.502;2024-02-21T10:28:38;99146.34;;;10.76;96.45
23867;BME280;12114;53.404;-1.502;2024-02-21T10:31:28;99132.91;;;10.89;98.41
23867;BME280;12114;53.404;-1.502;2024-02-21T10:34:16;99118.22;;;10.88;99.23
23867;BME280;12114;53.404;-1.502;2024-02-21T10:37:06;99126.16;;;10.86;100.00
23867;BME280;12114;53.404;-1.502;2024-02-21T10:39:50;99117.41;;;10.91;100.00
23867;BME280;12114;53.404;-1.502;2024-02-21T10:42:36;99122.63;;;11.00;100.00
23867;BME280;12114;53.404;-1.502;2024-02-21T10:45:23;99112.28;;;11.04;100.00
23867;BME280;12114;53.404;-1.502;2024-02-21T10:48:13;99107.13;;;10.99;100.00
23867;BME280;12114;53.404;-1.502;2024-02-21T10:51:13;99096.44;;;11.08;100.00
23867;BME280;12114;53.404;-1.502;2024-02-21T10:54:23;99098.44;;;11.15;100.00
23867;BME280;12114;53.404;-1.502;2024-02-21T10:57:13;99083.72;;;11.07;100.00
23867;BME280;12114;53.404;-1.502;2024-02-21T10:59:59;99064.66;;;11.06;100.00
23867;BME280;12114;53.404;-1.502;2024-02-21T11:02:45;99059.91;;;11.03;100.00
23867;BME280;12114;53.404;-1.502;2024-02-21T11:05:30;99057.50;;;11.01;100.00
23867;BME280;12114;53.404;-1.502;2024-02-21T11:08:16;99051.56;;;11.17;100.00
23867;BME280;12114;53.404;-1.502;2024-02-21T11:11:00;99044.03;;;11.00;100.00
23867;BME280;12114;53.404;-1.502;2024-02-21T11:13:44;99032.50;;;11.05;100.00
23867;BME280;12114;53.404;-1.502;2024-02-21T11:16:35;99026.53;;;11.17;100.00
23867;BME280;12114;53.404;-1.502;2024-02-21T11:19:27;99026.53;;;11.13;100.00
23867;BME280;12114;53.404;-1.502;2024-02-21T11:22:16;99021.78;;;11.17;100.00
23867;BME280;12114;53.404;-1.502;2024-02-21T11:25:07;99006.69;;;11.15;100.00
23867;BME280;12114;53.404;-1.502;2024-02-21T11:28:04;99017.03;;;11.18;100.00
23867;BME280;12114;53.404;-1.502;2024-02-21T11:30:50;99003.91;;;11.11;100.00
23867;BME280;12114;53.404;-1.502;2024-02-21T11:33:35;98986.44;;;11.21;100.00
23867;BME280;12114;53.404;-1.502;2024-02-21T11:36:26;98977.28;;;11.28;100.00
23867;BME280;12114;53.404;-1.502;2024-02-21T11:39:10;98974.53;;;11.17;100.00
23867;BME280;12114;53.404;-1.502;2024-02-21T11:42:04;98974.13;;;11.33;100.00
23867;BME280;12114;53.404;-1.502;2024-02-21T11:44:49;98956.25;;;11.23;100.00
23867;BME280;12114;53.404;-1.502;2024-02-21T11:47:33;98945.53;;;11.22;100.00
23867;BME280;12114;53.404;-1.502;2024-02-21T11:50:17;98934.41;;;11.32;100.00
23867;BME280;12114;53.404;-1.502;2024-02-21T11:53:01;98932.78;;;11.38;100.00
23867;BME280;12114;53.404;-1.502;2024-02-21T11:55:46;98917.66;;;11.46;100.00
23867;BME280;12114;53.404;-1.502;2024-02-21T11:58:31;98902.56;;;11.47;100.00
23867;BME280;12114;53.404;-1.502;2024-02-21T12:01:15;98889.47;;;11.48;100.00
23867;BME280;12114;53.404;-1.502;2024-02-21T12:03:59;98870.03;;;11.37;100.00
23867;BME280;12114;53.404;-1.502;2024-02-21T12:06:45;98857.66;;;11.56;100.00
23867;BME280;12114;53.404;-1.502;2024-02-21T12:09:29;98852.44;;;11.65;100.00
23867;BME280;12114;53.404;-1.502;2024-02-21T12:12:13;98819.03;;;11.69;99.05
23867;BME280;12114;53.404;-1.502;2024-02-21T12:14:57;98802.00;;;11.70;94.54
23867;BME280;12114;53.404;-1.502;2024-02-21T12:17:44;98784.00;;;11.85;92.55
23867;BME280;12114;53.404;-1.502;2024-02-21T12:20:30;98775.94;;;11.98;90.37
23867;BME280;12114;53.404;-1.502;2024-02-21T12:23:18;98768.88;;;11.90;91.14
23867;BME280;12114;53.404;-1.502;2024-02-21T12:26:03;98762.47;;;11.93;94.00
23867;BME280;12114;53.404;-1.502;2024-02-21T12:28:49;98754.47;;;12.02;95.12
23867;BME280;12114;53.404;-1.502;2024-02-21T12:31:32;98744.91;;;12.03;89.13
23867;BME280;12114;53.404;-1.502;2024-02-21T12:34:17;98742.47;;;12.12;84.98
23867;BME280;12114;53.404;-1.502;2024-02-21T12:37:01;98741.63;;;12.15;84.31
23867;BME280;12114;53.404;-1.502;2024-02-21T12:39:46;98735.47;;;12.38;80.80
23867;BME280;12114;53.404;-1.502;2024-02-21T12:42:31;98734.13;;;12.49;77.06
23867;BME280;12114;53.404;-1.502;2024-02-21T12:45:15;98728.94;;;12.55;75.60
23867;BME280;12114;53.404;-1.502;2024-02-21T12:47:59;98738.84;;;12.56;76.59
23867;BME280;12114;53.404;-1.502;2024-02-21T12:50:49;98723.56;;;12.71;69.57
23867;BME280;12114;53.404;-1.502;2024-02-21T12:53:37;98718.75;;;12.75;65.73
23867;BME280;12114;53.404;-1.502;2024-02-21T12:56:20;98708.75;;;12.81;59.47
23867;BME280;12114;53.404;-1.502;2024-02-21T12:59:05;98693.13;;;12.87;56.33
23867;BME280;12114;53.404;-1.502;2024-02-21T13:01:50;98700.75;;;13.17;55.59
23867;BME280;12114;53.404;-1.502;2024-02-21T13:04:34;98700.13;;;13.02;50.79
23867;BME280;12114;53.404;-1.502;2024-02-21T13:07:19;98690.91;;;13.09;42.72
23867;BME280;12114;53.404;-1.502;2024-02-21T13:10:03;98692.72;;;13.23;41.60
23867;BME280;12114;53.404;-1.502;2024-02-21T13:12:49;98700.19;;;13.29;41.78
23867;BME280;12114;53.404;-1.502;2024-02-21T13:15:33;98682.06;;;13.14;34.88
23867;BME280;12114;53.404;-1.502;2024-02-21T13:18:18;98683.50;;;13.26;34.78
23867;BME280;12114;53.404;-1.502;2024-02-21T13:21:02;98668.91;;;13.45;29.77
23867;BME280;12114;53.404;-1.502;2024-02-21T13:23:47;98681.19;;;13.47;24.85
23867;BME280;12114;53.404;-1.502;2024-02-21T13:26:31;98681.06;;;13.58;25.92
23867;BME280;12114;53.404;-1.502;2024-02-21T13:29:15;98675.00;;;13.86;20.64
23867;BME280;12114;53.404;-1.502;2024-02-21T13:31:59;98674.06;;;13.96;16.94
23867;BME280;12114;53.404;-1.502;2024-02-21T13:34:43;98661.84;;;13.87;13.40
23867;BME280;12114;53.404;-1.502;2024-02-21T13:37:27;98646.69;;;13.88;10.42
23867;BME280;12114;53.404;-1.502;2024-02-21T13:40:12;98648.38;;;13.82;6.23
23867;BME280;12114;53.404;-1.502;2024-02-21T13:42:57;98648.38;;;13.82;6.23
23867;BME280;12114;53.404;-1.502;2024-02-21T13:45:58;98629.41;;;13.73;5.51
23867;BME280;12114;53.404;-1.502;2024-02-21T13:48:42;98630.59;;;13.49;6.65
23867;BME280;12114;53.404;-1.502;2024-02-21T13:51:26;98627.78;;;13.49;11.39
23867;BME280;12114;53.404;-1.502;2024-02-21T13:54:10;98630.94;;;13.51;10.29
23867;BME280;12114;53.404;-1.502;2024-02-21T13:56:55;98632.09;;;13.53;12.88
23867;BME280;12114;53.404;-1.502;2024-02-21T13:59:39;98630.16;;;13.50;19.30
23867;BME280;12114;53.404;-1.502;2024-02-21T14:02:24;98616.50;;;13.56;22.33
23867;BME280;12114;53.404;-1.502;2024-02-21T14:05:08;98618.81;;;13.61;24.50
23867;BME280;12114;53.404;-1.502;2024-02-21T14:07:53;98603.78;;;13.55;24.68
23867;BME280;12114;53.404;-1.502;2024-02-21T14:10:38;98601.34;;;13.57;24.10
23867;BME280;12114;53.404;-1.502;2024-02-21T14:13:22;98591.56;;;13.45;19.81
23867;BME280;12114;53.404;-1.502;2024-02-21T14:16:10;98584.56;;;13.60;19.51
23867;BME280;12114;53.404;-1.502;2024-02-21T14:18:57;98583.88;;;13.53;18.23
23867;BME280;12114;53.404;-1.502;2024-02-21T14:21:41;98592.31;;;13.49;18.85